PWSweather.com
Personal Weather Stations
Station Observations
PICKERING
North Yorkshire, PickeringGB

North YorkshirePickeringGB

Lat: 54.2494, Lon: -0.7725

Elevation: 192

Station Type: Oregon Scientific WMR100

http://www.yorkshirewalker.co.uk/weather/

High Low Average
Temperature 52.3°F11.3°F 43.5°F6.4°F 48.8°F9.3°F
Dew Point 48.2°F9.0°F 39.2°F4.0°F 45.2°F7.3°F
Winds 6.0 mph -9.7 mph - Calm Calm 2.3 mph 3.7 mph
Wind Gusts 8.7 mph14.0 mph -- 4.1 mph6.6 mph
Humidity 88% 83% 85%
Pressure 29.80 in1009.10 in 29.65 in1004.10 in -
Precipitation 0.48 in12.20 in - -
Hour Temp Dew Point Humidity Winds Wind Gusts Pressure Precip Precip Rate Daily Precip Total
12:00 AM 43.5°F6.4°C 39.2°F4.0°C 86% 1.0 mph NE1.6 kmh NE 1.6 mph2.6 kmh 29.68 in1005.1 mb 0.00 in0.0 mm 0.00 in0.0 mm 0.00 in0.0 mm
12:05 AM 43.5°F6.4°C 39.2°F4.0°C 86% 1.3 mph NE2.1 kmh NE 2.5 mph4.0 kmh 29.65 in1004.1 mb 0.00 in0.0 mm 0.00 in0.0 mm 0.00 in0.0 mm
12:10 AM 43.7°F6.5°C 41.0°F5.0°C 86% 1.5 mph NE2.4 kmh NE 3.1 mph5.0 kmh 29.65 in1004.1 mb 0.00 in0.0 mm 0.00 in0.0 mm 0.00 in0.0 mm
12:15 AM 43.7°F6.5°C 41.0°F5.0°C 86% 1.2 mph NNE1.9 kmh NNE 3.1 mph5.0 kmh 29.65 in1004.1 mb 0.00 in0.0 mm 0.00 in0.0 mm 0.00 in0.0 mm
12:20 AM 43.7°F6.5°C 41.0°F5.0°C 86% 0.8 mph NNE1.3 kmh NNE 2.7 mph4.3 kmh 29.68 in1005.1 mb 0.00 in0.0 mm 0.00 in0.0 mm 0.00 in0.0 mm
12:25 AM 43.7°F6.5°C 41.0°F5.0°C 86% 0.4 mph NE0.6 kmh NE 2.5 mph4.0 kmh 29.68 in1005.1 mb 0.00 in0.0 mm 0.00 in0.0 mm 0.00 in0.0 mm
12:30 AM 43.7°F6.5°C 41.0°F5.0°C 86% 0.7 mph N1.1 kmh N 2.9 mph4.7 kmh 29.68 in1005.1 mb 0.00 in0.0 mm 0.00 in0.0 mm 0.00 in0.0 mm
12:35 AM 43.7°F6.5°C 41.0°F5.0°C 86% 0.8 mph NNW1.3 kmh NNW 2.9 mph4.7 kmh 29.68 in1005.1 mb 0.00 in0.0 mm 0.00 in0.0 mm 0.00 in0.0 mm
12:40 AM 43.7°F6.5°C 41.0°F5.0°C 86% 0.4 mph NW0.6 kmh NW 1.3 mph2.1 kmh 29.68 in1005.1 mb 0.00 in0.0 mm 0.00 in0.0 mm 0.00 in0.0 mm
12:45 AM 43.7°F6.5°C 41.0°F5.0°C 86% 0.2 mph NNW0.3 kmh NNW 1.1 mph1.8 kmh 29.68 in1005.1 mb 0.00 in0.0 mm 0.00 in0.0 mm 0.00 in0.0 mm
12:50 AM 43.7°F6.5°C 41.0°F5.0°C 86% 0.1 mph NNW0.2 kmh NNW 1.1 mph1.8 kmh 29.68 in1005.1 mb 0.00 in0.0 mm 0.00 in0.0 mm 0.00 in0.0 mm
12:55 AM 44.1°F6.7°C 41.0°F5.0°C 86% Calm Calm -- 29.68 in1005.1 mb 0.00 in0.0 mm 0.00 in0.0 mm 0.00 in0.0 mm
01:00 AM 44.1°F6.7°C 41.0°F5.0°C 86% Calm Calm -- 29.68 in1005.1 mb 0.00 in0.0 mm 0.00 in0.0 mm 0.00 in0.0 mm
01:05 AM 44.1°F6.7°C 41.0°F5.0°C 86% Calm Calm -- 29.68 in1005.1 mb 0.00 in0.0 mm 0.00 in0.0 mm 0.00 in0.0 mm
01:10 AM 44.1°F6.7°C 41.0°F5.0°C 86% Calm Calm -- 29.68 in1005.1 mb 0.00 in0.0 mm 0.00 in0.0 mm 0.00 in0.0 mm
01:15 AM 44.1°F6.7°C 41.0°F5.0°C 86% Calm Calm -- 29.68 in1005.1 mb 0.00 in0.0 mm 0.00 in0.0 mm 0.00 in0.0 mm
01:20 AM 44.1°F6.7°C 41.0°F5.0°C 86% Calm Calm -- 29.68 in1005.1 mb 0.00 in0.0 mm 0.00 in0.0 mm 0.00 in0.0 mm
01:25 AM 44.1°F6.7°C 41.0°F5.0°C 86% Calm Calm -- 29.68 in1005.1 mb 0.00 in0.0 mm 0.00 in0.0 mm 0.00 in0.0 mm
01:30 AM 44.1°F6.7°C 41.0°F5.0°C 86% Calm Calm -- 29.68 in1005.1 mb 0.00 in0.0 mm 0.00 in0.0 mm 0.00 in0.0 mm
01:35 AM 44.1°F6.7°C 41.0°F5.0°C 86% Calm Calm -- 29.68 in1005.1 mb 0.00 in0.0 mm 0.00 in0.0 mm 0.00 in0.0 mm
01:40 AM 44.1°F6.7°C 41.0°F5.0°C 86% 0.3 mph W0.5 kmh W 1.1 mph1.8 kmh 29.68 in1005.1 mb 0.00 in0.0 mm 0.00 in0.0 mm 0.00 in0.0 mm
01:45 AM 44.1°F6.7°C 41.0°F5.0°C 86% 0.3 mph W0.5 kmh W 1.1 mph1.8 kmh 29.68 in1005.1 mb 0.00 in0.0 mm 0.00 in0.0 mm 0.00 in0.0 mm
01:50 AM 44.1°F6.7°C 41.0°F5.0°C 86% 0.1 mph W0.2 kmh W 1.1 mph1.8 kmh 29.68 in1005.1 mb 0.00 in0.0 mm 0.00 in0.0 mm 0.00 in0.0 mm
01:55 AM 44.1°F6.7°C 41.0°F5.0°C 86% 0.2 mph NW0.3 kmh NW 1.3 mph2.1 kmh 29.68 in1005.1 mb 0.00 in0.0 mm 0.00 in0.0 mm 0.00 in0.0 mm
02:00 AM 44.2°F6.8°C 41.0°F5.0°C 86% 0.5 mph NW0.8 kmh NW 1.3 mph2.1 kmh 29.68 in1005.1 mb 0.00 in0.0 mm 0.00 in0.0 mm 0.00 in0.0 mm
02:05 AM 44.4°F6.9°C 41.0°F5.0°C 86% 0.6 mph NW1.0 kmh NW 1.1 mph1.8 kmh 29.68 in1005.1 mb 0.00 in0.0 mm 0.00 in0.0 mm 0.00 in0.0 mm
02:10 AM 44.2°F6.8°C 41.0°F5.0°C 86% 0.3 mph NW0.5 kmh NW 1.1 mph1.8 kmh 29.68 in1005.1 mb 0.00 in0.0 mm 0.00 in0.0 mm 0.00 in0.0 mm
02:15 AM 44.2°F6.8°C 41.0°F5.0°C 86% 0.2 mph NW0.3 kmh NW 0.9 mph1.4 kmh 29.68 in1005.1 mb 0.00 in0.0 mm 0.00 in0.0 mm 0.00 in0.0 mm
02:20 AM 44.4°F6.9°C 41.0°F5.0°C 86% 0.2 mph NW0.3 kmh NW 0.9 mph1.4 kmh 29.68 in1005.1 mb 0.00 in0.0 mm 0.00 in0.0 mm 0.00 in0.0 mm
02:25 AM 44.4°F6.9°C 41.0°F5.0°C 87% 0.1 mph WNW0.2 kmh WNW 0.9 mph1.4 kmh 29.68 in1005.1 mb 0.00 in0.0 mm 0.00 in0.0 mm 0.00 in0.0 mm
02:30 AM 44.4°F6.9°C 41.0°F5.0°C 87% 0.1 mph NW0.2 kmh NW 0.9 mph1.4 kmh 29.68 in1005.1 mb 0.00 in0.0 mm 0.00 in0.0 mm 0.00 in0.0 mm
02:35 AM 44.6°F7.0°C 41.0°F5.0°C 87% 0.3 mph NW0.5 kmh NW 1.1 mph1.8 kmh 29.68 in1005.1 mb 0.00 in0.0 mm 0.00 in0.0 mm 0.00 in0.0 mm
02:40 AM 44.6°F7.0°C 41.0°F5.0°C 87% 0.5 mph NW0.8 kmh NW 1.3 mph2.1 kmh 29.68 in1005.1 mb 0.00 in0.0 mm 0.00 in0.0 mm 0.00 in0.0 mm
02:45 AM 44.6°F7.0°C 41.0°F5.0°C 87% 0.6 mph WNW1.0 kmh WNW 1.3 mph2.1 kmh 29.68 in1005.1 mb 0.00 in0.0 mm 0.00 in0.0 mm 0.00 in0.0 mm
02:50 AM 44.6°F7.0°C 41.0°F5.0°C 87% 0.3 mph WNW0.5 kmh WNW 1.3 mph2.1 kmh 29.68 in1005.1 mb 0.00 in0.0 mm 0.00 in0.0 mm 0.00 in0.0 mm
02:55 AM 44.6°F7.0°C 41.0°F5.0°C 87% Calm Calm -- 29.68 in1005.1 mb 0.00 in0.0 mm 0.00 in0.0 mm 0.00 in0.0 mm
03:00 AM 44.6°F7.0°C 41.0°F5.0°C 87% Calm Calm -- 29.68 in1005.1 mb 0.00 in0.0 mm 0.00 in0.0 mm 0.00 in0.0 mm
03:05 AM 44.6°F7.0°C 41.0°F5.0°C 87% Calm Calm -- 29.68 in1005.1 mb 0.00 in0.0 mm 0.00 in0.0 mm 0.00 in0.0 mm
03:10 AM 44.6°F7.0°C 41.0°F5.0°C 87% Calm Calm -- 29.68 in1005.1 mb 0.00 in0.0 mm 0.00 in0.0 mm 0.00 in0.0 mm
03:15 AM 44.6°F7.0°C 41.0°F5.0°C 87% Calm Calm -- 29.68 in1005.1 mb 0.00 in0.0 mm 0.00 in0.0 mm 0.00 in0.0 mm
03:20 AM 44.8°F7.1°C 41.0°F5.0°C 87% 0.1 mph NNW0.2 kmh NNW 0.9 mph1.4 kmh 29.68 in1005.1 mb 0.00 in0.0 mm 0.00 in0.0 mm 0.00 in0.0 mm
03:25 AM 44.8°F7.1°C 41.0°F5.0°C 87% 0.2 mph NNW0.3 kmh NNW 0.9 mph1.4 kmh 29.68 in1005.1 mb 0.00 in0.0 mm 0.00 in0.0 mm 0.00 in0.0 mm
03:30 AM 44.8°F7.1°C 41.0°F5.0°C 87% 0.1 mph NNW0.2 kmh NNW 0.9 mph1.4 kmh 29.68 in1005.1 mb 0.00 in0.0 mm 0.00 in0.0 mm 0.00 in0.0 mm
03:35 AM 45.0°F7.2°C 42.8°F6.0°C 87% 0.6 mph N1.0 kmh N 1.6 mph2.6 kmh 29.68 in1005.1 mb 0.00 in0.0 mm 0.00 in0.0 mm 0.00 in0.0 mm
03:40 AM 45.1°F7.3°C 42.8°F6.0°C 87% 0.9 mph N1.4 kmh N 1.6 mph2.6 kmh 29.68 in1005.1 mb 0.00 in0.0 mm 0.00 in0.0 mm 0.00 in0.0 mm
03:45 AM 45.3°F7.4°C 42.8°F6.0°C 87% 1.1 mph N1.8 kmh N 2.7 mph4.3 kmh 29.68 in1005.1 mb 0.00 in0.0 mm 0.00 in0.0 mm 0.00 in0.0 mm
03:50 AM 45.5°F7.5°C 42.8°F6.0°C 87% 2.1 mph N3.4 kmh N 3.6 mph5.8 kmh 29.68 in1005.1 mb 0.00 in0.0 mm 0.00 in0.0 mm 0.00 in0.0 mm
03:55 AM 45.7°F7.6°C 42.8°F6.0°C 87% 3.0 mph N4.8 kmh N 4.7 mph7.6 kmh 29.68 in1005.1 mb 0.00 in0.0 mm 0.00 in0.0 mm 0.00 in0.0 mm
04:00 AM 45.9°F7.7°C 42.8°F6.0°C 87% 2.9 mph N4.7 kmh N 4.7 mph7.6 kmh 29.68 in1005.1 mb 0.00 in0.0 mm 0.00 in0.0 mm 0.00 in0.0 mm
04:05 AM 45.9°F7.7°C 42.8°F6.0°C 87% 2.6 mph NNE4.2 kmh NNE 4.0 mph6.4 kmh 29.68 in1005.1 mb 0.00 in0.0 mm 0.00 in0.0 mm 0.00 in0.0 mm
04:10 AM 45.9°F7.7°C 42.8°F6.0°C 87% 2.2 mph NNE3.5 kmh NNE 4.0 mph6.4 kmh 29.68 in1005.1 mb 0.00 in0.0 mm 0.00 in0.0 mm 0.00 in0.0 mm
04:15 AM 46.0°F7.8°C 42.8°F6.0°C 87% 2.4 mph NNE3.9 kmh NNE 5.6 mph9.0 kmh 29.68 in1005.1 mb 0.00 in0.0 mm 0.00 in0.0 mm 0.00 in0.0 mm
04:20 AM 46.2°F7.9°C 42.8°F6.0°C 87% 3.5 mph NNE5.6 kmh NNE 5.8 mph9.3 kmh 29.68 in1005.1 mb 0.00 in0.0 mm 0.00 in0.0 mm 0.00 in0.0 mm
04:25 AM 46.2°F7.9°C 42.8°F6.0°C 87% 3.7 mph N6.0 kmh N 5.8 mph9.3 kmh 29.68 in1005.1 mb 0.00 in0.0 mm 0.00 in0.0 mm 0.00 in0.0 mm
04:30 AM 46.2°F7.9°C 42.8°F6.0°C 87% 3.3 mph N5.3 kmh N 5.4 mph8.7 kmh 29.68 in1005.1 mb 0.00 in0.0 mm 0.00 in0.0 mm 0.00 in0.0 mm
04:35 AM 46.4°F8.0°C 42.8°F6.0°C 87% 3.1 mph NNE5.0 kmh NNE 4.0 mph6.4 kmh 29.68 in1005.1 mb 0.00 in0.0 mm 0.00 in0.0 mm 0.00 in0.0 mm
04:40 AM 46.4°F8.0°C 42.8°F6.0°C 87% 3.1 mph NNE5.0 kmh NNE 4.0 mph6.4 kmh 29.68 in1005.1 mb 0.00 in0.0 mm 0.00 in0.0 mm 0.00 in0.0 mm
04:45 AM 46.4°F8.0°C 42.8°F6.0°C 87% 3.3 mph NNE5.3 kmh NNE 3.8 mph6.1 kmh 29.68 in1005.1 mb 0.00 in0.0 mm 0.00 in0.0 mm 0.00 in0.0 mm
04:50 AM 46.6°F8.1°C 42.8°F6.0°C 87% 3.7 mph NE6.0 kmh NE 4.7 mph7.6 kmh 29.68 in1005.1 mb 0.00 in0.0 mm 0.00 in0.0 mm 0.00 in0.0 mm
04:55 AM 46.8°F8.2°C 42.8°F6.0°C 87% 4.3 mph NE6.9 kmh NE 7.2 mph11.6 kmh 29.68 in1005.1 mb 0.00 in0.0 mm 0.00 in0.0 mm 0.00 in0.0 mm
05:00 AM 46.8°F8.2°C 42.8°F6.0°C 87% 4.4 mph NE7.1 kmh NE 7.2 mph11.6 kmh 29.68 in1005.1 mb 0.00 in0.0 mm 0.00 in0.0 mm 0.00 in0.0 mm
05:05 AM 46.8°F8.2°C 42.8°F6.0°C 87% 4.5 mph NNE7.2 kmh NNE 7.2 mph11.6 kmh 29.68 in1005.1 mb 0.00 in0.0 mm 0.00 in0.0 mm 0.00 in0.0 mm
05:10 AM 46.8°F8.2°C 42.8°F6.0°C 87% 4.4 mph NNE7.1 kmh NNE 7.2 mph11.6 kmh 29.68 in1005.1 mb 0.00 in0.0 mm 0.00 in0.0 mm 0.00 in0.0 mm
05:15 AM 46.8°F8.2°C 42.8°F6.0°C 87% 3.9 mph NNE6.3 kmh NNE 6.3 mph10.1 kmh 29.68 in1005.1 mb 0.00 in0.0 mm 0.00 in0.0 mm 0.00 in0.0 mm
05:20 AM 46.8°F8.2°C 42.8°F6.0°C 87% 3.6 mph N5.8 kmh N 5.8 mph9.3 kmh 29.68 in1005.1 mb 0.00 in0.0 mm 0.00 in0.0 mm 0.00 in0.0 mm
05:25 AM 46.8°F8.2°C 42.8°F6.0°C 87% 2.9 mph N4.7 kmh N 5.4 mph8.7 kmh 29.68 in1005.1 mb 0.00 in0.0 mm 0.00 in0.0 mm 0.00 in0.0 mm
05:30 AM 46.8°F8.2°C 42.8°F6.0°C 87% 2.4 mph N3.9 kmh N 4.3 mph6.9 kmh 29.68 in1005.1 mb 0.00 in0.0 mm 0.00 in0.0 mm 0.00 in0.0 mm
05:35 AM 46.8°F8.2°C 42.8°F6.0°C 87% 2.1 mph NNE3.4 kmh NNE 4.3 mph6.9 kmh 29.68 in1005.1 mb 0.00 in0.0 mm 0.00 in0.0 mm 0.00 in0.0 mm
05:40 AM 46.8°F8.2°C 42.8°F6.0°C 87% 2.1 mph NNE3.4 kmh NNE 3.4 mph5.5 kmh 29.68 in1005.1 mb 0.00 in0.0 mm 0.00 in0.0 mm 0.00 in0.0 mm
05:45 AM 46.8°F8.2°C 42.8°F6.0°C 87% 2.4 mph NNE3.9 kmh NNE 3.8 mph6.1 kmh 29.68 in1005.1 mb 0.00 in0.0 mm 0.00 in0.0 mm 0.00 in0.0 mm
05:50 AM 46.8°F8.2°C 42.8°F6.0°C 87% 2.3 mph NNE3.7 kmh NNE 4.0 mph6.4 kmh 29.68 in1005.1 mb 0.00 in0.0 mm 0.00 in0.0 mm 0.00 in0.0 mm
05:55 AM 46.9°F8.3°C 44.6°F7.0°C 87% 2.4 mph N3.9 kmh N 4.9 mph7.9 kmh 29.68 in1005.1 mb 0.00 in0.0 mm 0.00 in0.0 mm 0.00 in0.0 mm
06:00 AM 46.9°F8.3°C 44.6°F7.0°C 87% 3.4 mph N5.5 kmh N 8.1 mph13.0 kmh 29.68 in1005.1 mb 0.00 in0.0 mm 0.00 in0.0 mm 0.00 in0.0 mm
06:05 AM 46.9°F8.3°C 44.6°F7.0°C 87% 3.5 mph N5.6 kmh N 8.1 mph13.0 kmh 29.68 in1005.1 mb 0.00 in0.0 mm 0.00 in0.0 mm 0.00 in0.0 mm
06:10 AM 47.1°F8.4°C 44.6°F7.0°C 87% 2.9 mph N4.7 kmh N 6.5 mph10.5 kmh 29.68 in1005.1 mb 0.00 in0.0 mm 0.00 in0.0 mm 0.00 in0.0 mm
06:15 AM 47.1°F8.4°C 44.6°F7.0°C 87% 3.4 mph N5.5 kmh N 6.5 mph10.5 kmh 29.68 in1005.1 mb 0.00 in0.0 mm 0.00 in0.0 mm 0.00 in0.0 mm
06:20 AM 47.1°F8.4°C 44.6°F7.0°C 87% 2.9 mph N4.7 kmh N 6.3 mph10.1 kmh 29.68 in1005.1 mb 0.00 in0.0 mm 0.00 in0.0 mm 0.00 in0.0 mm
06:25 AM 47.1°F8.4°C 44.6°F7.0°C 87% 2.8 mph NNE4.5 kmh NNE 4.3 mph6.9 kmh 29.68 in1005.1 mb 0.00 in0.0 mm 0.00 in0.0 mm 0.00 in0.0 mm
06:30 AM 47.1°F8.4°C 44.6°F7.0°C 87% 2.9 mph N4.7 kmh N 4.3 mph6.9 kmh 29.68 in1005.1 mb 0.00 in0.0 mm 0.00 in0.0 mm 0.00 in0.0 mm
06:35 AM 47.3°F8.5°C 44.6°F7.0°C 87% 2.4 mph N3.9 kmh N 4.0 mph6.4 kmh 29.68 in1005.1 mb 0.00 in0.0 mm 0.00 in0.0 mm 0.00 in0.0 mm
06:40 AM 47.3°F8.5°C 44.6°F7.0°C 87% 2.2 mph NNE3.5 kmh NNE 4.0 mph6.4 kmh 29.68 in1005.1 mb 0.00 in0.0 mm 0.00 in0.0 mm 0.00 in0.0 mm
06:45 AM 47.3°F8.5°C 44.6°F7.0°C 87% 1.9 mph NNE3.1 kmh NNE 3.1 mph5.0 kmh 29.68 in1005.1 mb 0.00 in0.0 mm 0.00 in0.0 mm 0.00 in0.0 mm
06:50 AM 47.3°F8.5°C 44.6°F7.0°C 87% 2.1 mph N3.4 kmh N 2.9 mph4.7 kmh 29.71 in1006.1 mb 0.00 in0.0 mm 0.00 in0.0 mm 0.00 in0.0 mm
06:55 AM 47.3°F8.5°C 44.6°F7.0°C 87% 2.4 mph NNE3.9 kmh NNE 4.3 mph6.9 kmh 29.71 in1006.1 mb 0.04 in1.0 mm 0.48 in12.2 mm 0.04 in1.0 mm
07:00 AM 47.3°F8.5°C 44.6°F7.0°C 87% 2.7 mph NNE4.3 kmh NNE 4.3 mph6.9 kmh 29.71 in1006.1 mb 0.04 in1.0 mm 0.00 in0.0 mm 0.04 in1.0 mm
07:05 AM 47.3°F8.5°C 44.6°F7.0°C 87% 3.2 mph NNE5.1 kmh NNE 4.9 mph7.9 kmh 29.71 in1006.1 mb 0.04 in1.0 mm 0.00 in0.0 mm 0.04 in1.0 mm
07:10 AM 47.3°F8.5°C 44.6°F7.0°C 87% 3.8 mph NNE6.1 kmh NNE 4.9 mph7.9 kmh 29.71 in1006.1 mb 0.04 in1.0 mm 0.00 in0.0 mm 0.04 in1.0 mm
07:15 AM 47.3°F8.5°C 44.6°F7.0°C 87% 3.6 mph NNE5.8 kmh NNE 4.9 mph7.9 kmh 29.71 in1006.1 mb 0.04 in1.0 mm 0.00 in0.0 mm 0.04 in1.0 mm
07:20 AM 47.3°F8.5°C 44.6°F7.0°C 87% 3.3 mph NE5.3 kmh NE 4.0 mph6.4 kmh 29.71 in1006.1 mb 0.04 in1.0 mm 0.00 in0.0 mm 0.04 in1.0 mm
07:25 AM 47.5°F8.6°C 44.6°F7.0°C 87% 3.3 mph NE5.3 kmh NE 5.6 mph9.0 kmh 29.71 in1006.1 mb 0.04 in1.0 mm 0.00 in0.0 mm 0.04 in1.0 mm
07:30 AM 47.5°F8.6°C 44.6°F7.0°C 87% 3.0 mph NNE4.8 kmh NNE 5.6 mph9.0 kmh 29.71 in1006.1 mb 0.04 in1.0 mm 0.00 in0.0 mm 0.04 in1.0 mm
07:35 AM 47.5°F8.6°C 44.6°F7.0°C 87% 2.8 mph NNE4.5 kmh NNE 5.4 mph8.7 kmh 29.71 in1006.1 mb 0.04 in1.0 mm 0.00 in0.0 mm 0.04 in1.0 mm
07:40 AM 47.7°F8.7°C 44.6°F7.0°C 87% 2.7 mph NE4.3 kmh NE 5.4 mph8.7 kmh 29.71 in1006.1 mb 0.04 in1.0 mm 0.00 in0.0 mm 0.04 in1.0 mm
07:45 AM 47.7°F8.7°C 44.6°F7.0°C 87% 3.0 mph NE4.8 kmh NE 5.6 mph9.0 kmh 29.71 in1006.1 mb 0.04 in1.0 mm 0.00 in0.0 mm 0.04 in1.0 mm
07:50 AM 47.7°F8.7°C 44.6°F7.0°C 88% 2.8 mph NE4.5 kmh NE 5.6 mph9.0 kmh 29.74 in1007.1 mb 0.04 in1.0 mm 0.00 in0.0 mm 0.04 in1.0 mm
07:55 AM 47.8°F8.8°C 44.6°F7.0°C 88% 2.0 mph NNE3.2 kmh NNE 4.3 mph6.9 kmh 29.74 in1007.1 mb 0.00 in0.0 mm 0.00 in0.0 mm 0.04 in1.0 mm
08:00 AM 48.0°F8.9°C 44.6°F7.0°C 88% 1.7 mph N2.7 kmh N 2.7 mph4.3 kmh 29.74 in1007.1 mb 0.00 in0.0 mm 0.00 in0.0 mm 0.04 in1.0 mm
08:05 AM 48.2°F9.0°C 44.6°F7.0°C 88% 2.4 mph NNE3.9 kmh NNE 3.6 mph5.8 kmh 29.74 in1007.1 mb 0.00 in0.0 mm 0.00 in0.0 mm 0.04 in1.0 mm
08:10 AM 48.2°F9.0°C 44.6°F7.0°C 88% 3.1 mph NNE5.0 kmh NNE 3.8 mph6.1 kmh 29.74 in1007.1 mb 0.00 in0.0 mm 0.00 in0.0 mm 0.04 in1.0 mm
08:15 AM 48.4°F9.1°C 44.6°F7.0°C 88% 3.3 mph NE5.3 kmh NE 4.0 mph6.4 kmh 29.74 in1007.1 mb 0.00 in0.0 mm 0.00 in0.0 mm 0.04 in1.0 mm
08:20 AM 48.6°F9.2°C 46.4°F8.0°C 87% 3.4 mph NNE5.5 kmh NNE 4.0 mph6.4 kmh 29.74 in1007.1 mb 0.00 in0.0 mm 0.00 in0.0 mm 0.04 in1.0 mm
08:25 AM 48.7°F9.3°C 46.4°F8.0°C 87% 2.8 mph N4.5 kmh N 4.3 mph6.9 kmh 29.74 in1007.1 mb 0.00 in0.0 mm 0.00 in0.0 mm 0.04 in1.0 mm
08:30 AM 48.7°F9.3°C 46.4°F8.0°C 87% 2.6 mph NNE4.2 kmh NNE 4.3 mph6.9 kmh 29.74 in1007.1 mb 0.00 in0.0 mm 0.00 in0.0 mm 0.04 in1.0 mm
08:35 AM 48.9°F9.4°C 46.4°F8.0°C 87% 3.4 mph NE5.5 kmh NE 5.4 mph8.7 kmh 29.74 in1007.1 mb 0.00 in0.0 mm 0.00 in0.0 mm 0.04 in1.0 mm
08:40 AM 49.1°F9.5°C 46.4°F8.0°C 87% 3.5 mph NNE5.6 kmh NNE 5.4 mph8.7 kmh 29.74 in1007.1 mb 0.00 in0.0 mm 0.00 in0.0 mm 0.04 in1.0 mm
08:45 AM 49.1°F9.5°C 46.4°F8.0°C 87% 2.2 mph N3.5 kmh N 5.4 mph8.7 kmh 29.74 in1007.1 mb 0.00 in0.0 mm 0.00 in0.0 mm 0.04 in1.0 mm
08:50 AM 49.3°F9.6°C 46.4°F8.0°C 87% 1.8 mph N2.9 kmh N 4.3 mph6.9 kmh 29.74 in1007.1 mb 0.00 in0.0 mm 0.00 in0.0 mm 0.04 in1.0 mm
08:55 AM 49.3°F9.6°C 46.4°F8.0°C 87% 2.0 mph N3.2 kmh N 4.3 mph6.9 kmh 29.74 in1007.1 mb 0.00 in0.0 mm 0.00 in0.0 mm 0.04 in1.0 mm
09:00 AM 49.3°F9.6°C 46.4°F8.0°C 87% 1.7 mph NE2.7 kmh NE 2.5 mph4.0 kmh 29.74 in1007.1 mb 0.00 in0.0 mm 0.00 in0.0 mm 0.04 in1.0 mm
09:05 AM 49.5°F9.7°C 46.4°F8.0°C 87% 2.2 mph NE3.5 kmh NE 4.3 mph6.9 kmh 29.74 in1007.1 mb 0.00 in0.0 mm 0.00 in0.0 mm 0.04 in1.0 mm
09:10 AM 49.5°F9.7°C 46.4°F8.0°C 87% 2.4 mph NE3.9 kmh NE 4.3 mph6.9 kmh 29.74 in1007.1 mb 0.00 in0.0 mm 0.00 in0.0 mm 0.04 in1.0 mm
09:15 AM 49.5°F9.7°C 46.4°F8.0°C 87% 2.2 mph NNE3.5 kmh NNE 4.0 mph6.4 kmh 29.74 in1007.1 mb 0.00 in0.0 mm 0.00 in0.0 mm 0.04 in1.0 mm
09:20 AM 49.6°F9.8°C 46.4°F8.0°C 87% 2.2 mph NNE3.5 kmh NNE 4.7 mph7.6 kmh 29.74 in1007.1 mb 0.00 in0.0 mm 0.00 in0.0 mm 0.04 in1.0 mm
09:25 AM 49.6°F9.8°C 46.4°F8.0°C 87% 2.0 mph NE3.2 kmh NE 4.7 mph7.6 kmh 29.74 in1007.1 mb 0.00 in0.0 mm 0.00 in0.0 mm 0.04 in1.0 mm
09:30 AM 49.6°F9.8°C 46.4°F8.0°C 87% 1.8 mph NE2.9 kmh NE 3.6 mph5.8 kmh 29.74 in1007.1 mb 0.00 in0.0 mm 0.00 in0.0 mm 0.04 in1.0 mm
09:35 AM 49.6°F9.8°C 46.4°F8.0°C 87% 1.9 mph NE3.1 kmh NE 3.1 mph5.0 kmh 29.74 in1007.1 mb 0.00 in0.0 mm 0.00 in0.0 mm 0.04 in1.0 mm
09:40 AM 49.8°F9.9°C 46.4°F8.0°C 87% 2.2 mph NE3.5 kmh NE 6.0 mph9.7 kmh 29.74 in1007.1 mb 0.00 in0.0 mm 0.00 in0.0 mm 0.04 in1.0 mm
09:45 AM 49.8°F9.9°C 46.4°F8.0°C 87% 2.7 mph NE4.3 kmh NE 6.0 mph9.7 kmh 29.74 in1007.1 mb 0.00 in0.0 mm 0.00 in0.0 mm 0.04 in1.0 mm
09:50 AM 50.0°F10.0°C 46.4°F8.0°C 87% 2.8 mph NE4.5 kmh NE 6.0 mph9.7 kmh 29.74 in1007.1 mb 0.00 in0.0 mm 0.00 in0.0 mm 0.04 in1.0 mm
09:55 AM 50.0°F10.0°C 46.4°F8.0°C 87% 2.9 mph NE4.7 kmh NE 4.3 mph6.9 kmh 29.74 in1007.1 mb 0.00 in0.0 mm 0.00 in0.0 mm 0.04 in1.0 mm
10:00 AM 50.0°F10.0°C 46.4°F8.0°C 87% 3.4 mph NE5.5 kmh NE 5.6 mph9.0 kmh 29.74 in1007.1 mb 0.00 in0.0 mm 0.00 in0.0 mm 0.04 in1.0 mm
10:05 AM 50.0°F10.0°C 46.4°F8.0°C 86% 3.3 mph NE5.3 kmh NE 5.6 mph9.0 kmh 29.74 in1007.1 mb 0.00 in0.0 mm 0.00 in0.0 mm 0.04 in1.0 mm
10:10 AM 50.0°F10.0°C 46.4°F8.0°C 87% 2.2 mph NE3.5 kmh NE 3.8 mph6.1 kmh 29.74 in1007.1 mb 0.00 in0.0 mm 0.00 in0.0 mm 0.04 in1.0 mm
10:15 AM 50.0°F10.0°C 46.4°F8.0°C 87% 1.9 mph NE3.1 kmh NE 3.4 mph5.5 kmh 29.74 in1007.1 mb 0.00 in0.0 mm 0.00 in0.0 mm 0.04 in1.0 mm
10:20 AM 50.0°F10.0°C 46.4°F8.0°C 86% 2.5 mph NE4.0 kmh NE 5.4 mph8.7 kmh 29.74 in1007.1 mb 0.00 in0.0 mm 0.00 in0.0 mm 0.04 in1.0 mm
10:25 AM 50.0°F10.0°C 46.4°F8.0°C 86% 2.8 mph NE4.5 kmh NE 5.4 mph8.7 kmh 29.74 in1007.1 mb 0.00 in0.0 mm 0.00 in0.0 mm 0.04 in1.0 mm
10:30 AM 50.0°F10.0°C 46.4°F8.0°C 86% 2.6 mph NE4.2 kmh NE 5.6 mph9.0 kmh 29.74 in1007.1 mb 0.00 in0.0 mm 0.00 in0.0 mm 0.04 in1.0 mm
10:35 AM 50.0°F10.0°C 46.4°F8.0°C 86% 2.7 mph NE4.3 kmh NE 5.6 mph9.0 kmh 29.74 in1007.1 mb 0.00 in0.0 mm 0.00 in0.0 mm 0.04 in1.0 mm
10:40 AM 50.0°F10.0°C 46.4°F8.0°C 86% 2.6 mph NE4.2 kmh NE 3.6 mph5.8 kmh 29.74 in1007.1 mb 0.00 in0.0 mm 0.00 in0.0 mm 0.04 in1.0 mm
10:45 AM 50.0°F10.0°C 46.4°F8.0°C 86% 2.7 mph NE4.3 kmh NE 4.9 mph7.9 kmh 29.74 in1007.1 mb 0.00 in0.0 mm 0.00 in0.0 mm 0.04 in1.0 mm
10:50 AM 50.2°F10.1°C 46.4°F8.0°C 86% 2.8 mph NE4.5 kmh NE 4.9 mph7.9 kmh 29.74 in1007.1 mb 0.00 in0.0 mm 0.00 in0.0 mm 0.04 in1.0 mm
10:55 AM 50.2°F10.1°C 46.4°F8.0°C 86% 2.7 mph NE4.3 kmh NE 4.0 mph6.4 kmh 29.74 in1007.1 mb 0.00 in0.0 mm 0.00 in0.0 mm 0.04 in1.0 mm
11:00 AM 50.5°F10.3°C 46.4°F8.0°C 86% 2.5 mph NE4.0 kmh NE 4.0 mph6.4 kmh 29.74 in1007.1 mb 0.00 in0.0 mm 0.00 in0.0 mm 0.04 in1.0 mm
11:05 AM 50.5°F10.3°C 46.4°F8.0°C 86% 3.2 mph ENE5.1 kmh ENE 6.3 mph10.1 kmh 29.74 in1007.1 mb 0.00 in0.0 mm 0.00 in0.0 mm 0.04 in1.0 mm
11:10 AM 50.7°F10.4°C 46.4°F8.0°C 86% 3.7 mph NE6.0 kmh NE 6.3 mph10.1 kmh 29.74 in1007.1 mb 0.00 in0.0 mm 0.00 in0.0 mm 0.04 in1.0 mm
11:15 AM 50.9°F10.5°C 48.2°F9.0°C 85% 2.7 mph NE4.3 kmh NE 6.3 mph10.1 kmh 29.74 in1007.1 mb 0.00 in0.0 mm 0.00 in0.0 mm 0.04 in1.0 mm
11:20 AM 51.1°F10.6°C 48.2°F9.0°C 85% 2.0 mph NE3.2 kmh NE 3.6 mph5.8 kmh 29.74 in1007.1 mb 0.00 in0.0 mm 0.00 in0.0 mm 0.04 in1.0 mm
11:25 AM 51.3°F10.7°C 48.2°F9.0°C 85% 1.8 mph NE2.9 kmh NE 3.6 mph5.8 kmh 29.74 in1007.1 mb 0.00 in0.0 mm 0.00 in0.0 mm 0.04 in1.0 mm
11:30 AM 51.4°F10.8°C 48.2°F9.0°C 85% 2.8 mph N4.5 kmh N 5.4 mph8.7 kmh 29.74 in1007.1 mb 0.00 in0.0 mm 0.00 in0.0 mm 0.04 in1.0 mm
11:35 AM 51.6°F10.9°C 48.2°F9.0°C 85% 3.1 mph NNE5.0 kmh NNE 5.4 mph8.7 kmh 29.74 in1007.1 mb 0.00 in0.0 mm 0.00 in0.0 mm 0.04 in1.0 mm
11:40 AM 51.8°F11.0°C 48.2°F9.0°C 85% 2.7 mph NE4.3 kmh NE 6.0 mph9.7 kmh 29.74 in1007.1 mb 0.00 in0.0 mm 0.00 in0.0 mm 0.04 in1.0 mm
11:45 AM 51.8°F11.0°C 48.2°F9.0°C 85% 3.1 mph NE5.0 kmh NE 6.0 mph9.7 kmh 29.74 in1007.1 mb 0.00 in0.0 mm 0.00 in0.0 mm 0.04 in1.0 mm
11:50 AM 51.8°F11.0°C 48.2°F9.0°C 85% 3.3 mph NNE5.3 kmh NNE 4.3 mph6.9 kmh 29.74 in1007.1 mb 0.00 in0.0 mm 0.00 in0.0 mm 0.04 in1.0 mm
11:55 AM 51.8°F11.0°C 48.2°F9.0°C 84% 2.8 mph NNE4.5 kmh NNE 4.3 mph6.9 kmh 29.74 in1007.1 mb 0.00 in0.0 mm 0.00 in0.0 mm 0.04 in1.0 mm
12:00 PM 51.8°F11.0°C 48.2°F9.0°C 85% 2.9 mph NE4.7 kmh NE 7.2 mph11.6 kmh 29.74 in1007.1 mb 0.00 in0.0 mm 0.00 in0.0 mm 0.04 in1.0 mm
12:05 PM 51.8°F11.0°C 48.2°F9.0°C 84% 3.8 mph NE6.1 kmh NE 7.6 mph12.2 kmh 29.74 in1007.1 mb 0.00 in0.0 mm 0.00 in0.0 mm 0.04 in1.0 mm
12:10 PM 51.6°F10.9°C 48.2°F9.0°C 84% 3.9 mph NE6.3 kmh NE 7.6 mph12.2 kmh 29.74 in1007.1 mb 0.00 in0.0 mm 0.00 in0.0 mm 0.04 in1.0 mm
12:15 PM 51.8°F11.0°C 48.2°F9.0°C 84% 3.5 mph NE5.6 kmh NE 5.8 mph9.3 kmh 29.74 in1007.1 mb 0.00 in0.0 mm 0.00 in0.0 mm 0.04 in1.0 mm
12:20 PM 51.8°F11.0°C 48.2°F9.0°C 84% 3.3 mph NE5.3 kmh NE 5.8 mph9.3 kmh 29.74 in1007.1 mb 0.00 in0.0 mm 0.00 in0.0 mm 0.04 in1.0 mm
12:25 PM 52.0°F11.1°C 48.2°F9.0°C 84% 3.6 mph NE5.8 kmh NE 6.3 mph10.1 kmh 29.74 in1007.1 mb 0.00 in0.0 mm 0.00 in0.0 mm 0.04 in1.0 mm
12:30 PM 51.8°F11.0°C 46.4°F8.0°C 83% 3.7 mph NE6.0 kmh NE 6.3 mph10.1 kmh 29.74 in1007.1 mb 0.00 in0.0 mm 0.00 in0.0 mm 0.04 in1.0 mm
12:35 PM 51.8°F11.0°C 46.4°F8.0°C 83% 3.5 mph NE5.6 kmh NE 6.5 mph10.5 kmh 29.74 in1007.1 mb 0.00 in0.0 mm 0.00 in0.0 mm 0.04 in1.0 mm
12:40 PM 51.8°F11.0°C 48.2°F9.0°C 84% 3.8 mph NE6.1 kmh NE 6.5 mph10.5 kmh 29.74 in1007.1 mb 0.00 in0.0 mm 0.00 in0.0 mm 0.04 in1.0 mm
12:45 PM 51.8°F11.0°C 46.4°F8.0°C 83% 4.7 mph NE7.6 kmh NE 6.3 mph10.1 kmh 29.74 in1007.1 mb 0.00 in0.0 mm 0.00 in0.0 mm 0.04 in1.0 mm
12:50 PM 51.8°F11.0°C 46.4°F8.0°C 83% 5.4 mph NE8.7 kmh NE 8.7 mph14.0 kmh 29.74 in1007.1 mb 0.00 in0.0 mm 0.00 in0.0 mm 0.04 in1.0 mm
12:55 PM 51.8°F11.0°C 46.4°F8.0°C 83% 6.0 mph NE9.7 kmh NE 8.7 mph14.0 kmh 29.74 in1007.1 mb 0.00 in0.0 mm 0.00 in0.0 mm 0.04 in1.0 mm
01:00 PM 51.8°F11.0°C 46.4°F8.0°C 83% 5.3 mph NE8.5 kmh NE 8.7 mph14.0 kmh 29.74 in1007.1 mb 0.00 in0.0 mm 0.00 in0.0 mm 0.04 in1.0 mm
01:05 PM 51.8°F11.0°C 46.4°F8.0°C 83% 4.1 mph NE6.6 kmh NE 6.0 mph9.7 kmh 29.74 in1007.1 mb 0.00 in0.0 mm 0.00 in0.0 mm 0.04 in1.0 mm
01:10 PM 52.0°F11.1°C 48.2°F9.0°C 84% 3.3 mph ENE5.3 kmh ENE 4.3 mph6.9 kmh 29.74 in1007.1 mb 0.00 in0.0 mm 0.00 in0.0 mm 0.04 in1.0 mm
01:15 PM 52.0°F11.1°C 48.2°F9.0°C 84% 3.1 mph NE5.0 kmh NE 4.3 mph6.9 kmh 29.74 in1007.1 mb 0.00 in0.0 mm 0.00 in0.0 mm 0.04 in1.0 mm
01:20 PM 52.0°F11.1°C 48.2°F9.0°C 84% 3.4 mph NE5.5 kmh NE 4.9 mph7.9 kmh 29.74 in1007.1 mb 0.00 in0.0 mm 0.00 in0.0 mm 0.04 in1.0 mm
01:25 PM 52.0°F11.1°C 48.2°F9.0°C 84% 4.0 mph NE6.4 kmh NE 6.0 mph9.7 kmh 29.74 in1007.1 mb 0.00 in0.0 mm 0.00 in0.0 mm 0.04 in1.0 mm
01:30 PM 52.0°F11.1°C 48.2°F9.0°C 84% 4.0 mph NE6.4 kmh NE 6.0 mph9.7 kmh 29.74 in1007.1 mb 0.00 in0.0 mm 0.00 in0.0 mm 0.04 in1.0 mm
01:35 PM 52.0°F11.1°C 46.4°F8.0°C 83% 4.0 mph NE6.4 kmh NE 5.8 mph9.3 kmh 29.74 in1007.1 mb 0.00 in0.0 mm 0.00 in0.0 mm 0.04 in1.0 mm
01:40 PM 52.0°F11.1°C 46.4°F8.0°C 83% 4.0 mph NE6.4 kmh NE 6.5 mph10.5 kmh 29.74 in1007.1 mb 0.00 in0.0 mm 0.00 in0.0 mm 0.04 in1.0 mm
01:45 PM 52.0°F11.1°C 46.4°F8.0°C 83% 3.6 mph NE5.8 kmh NE 6.5 mph10.5 kmh 29.74 in1007.1 mb 0.00 in0.0 mm 0.00 in0.0 mm 0.04 in1.0 mm
01:50 PM 52.0°F11.1°C 46.4°F8.0°C 83% 3.8 mph NE6.1 kmh NE 5.4 mph8.7 kmh 29.74 in1007.1 mb 0.00 in0.0 mm 0.00 in0.0 mm 0.04 in1.0 mm
01:55 PM 52.0°F11.1°C 46.4°F8.0°C 83% 3.5 mph NE5.6 kmh NE 5.4 mph8.7 kmh 29.74 in1007.1 mb 0.00 in0.0 mm 0.00 in0.0 mm 0.04 in1.0 mm
02:00 PM 52.0°F11.1°C 46.4°F8.0°C 83% 2.9 mph NE4.7 kmh NE 5.4 mph8.7 kmh 29.74 in1007.1 mb 0.00 in0.0 mm 0.00 in0.0 mm 0.04 in1.0 mm
02:05 PM 52.0°F11.1°C 46.4°F8.0°C 83% 2.9 mph NE4.7 kmh NE 5.4 mph8.7 kmh 29.77 in1008.1 mb 0.00 in0.0 mm 0.00 in0.0 mm 0.04 in1.0 mm
02:10 PM 52.0°F11.1°C 46.4°F8.0°C 83% 2.7 mph NE4.3 kmh NE 5.4 mph8.7 kmh 29.77 in1008.1 mb 0.00 in0.0 mm 0.00 in0.0 mm 0.04 in1.0 mm
02:15 PM 52.0°F11.1°C 46.4°F8.0°C 83% 3.0 mph NE4.8 kmh NE 7.4 mph11.9 kmh 29.77 in1008.1 mb 0.00 in0.0 mm 0.00 in0.0 mm 0.04 in1.0 mm
02:20 PM 52.0°F11.1°C 46.4°F8.0°C 83% 4.0 mph NE6.4 kmh NE 7.6 mph12.2 kmh 29.74 in1007.1 mb 0.00 in0.0 mm 0.00 in0.0 mm 0.04 in1.0 mm
02:25 PM 52.0°F11.1°C 46.4°F8.0°C 83% 4.5 mph NE7.2 kmh NE 8.1 mph13.0 kmh 29.74 in1007.1 mb 0.00 in0.0 mm 0.00 in0.0 mm 0.04 in1.0 mm
02:30 PM 52.0°F11.1°C 46.4°F8.0°C 83% 4.1 mph NE6.6 kmh NE 8.1 mph13.0 kmh 29.74 in1007.1 mb 0.00 in0.0 mm 0.00 in0.0 mm 0.04 in1.0 mm
02:35 PM 52.2°F11.2°C 48.2°F9.0°C 83% 3.0 mph NE4.8 kmh NE 4.7 mph7.6 kmh 29.77 in1008.1 mb 0.00 in0.0 mm 0.00 in0.0 mm 0.04 in1.0 mm
02:40 PM 52.2°F11.2°C 48.2°F9.0°C 83% 3.2 mph NE5.1 kmh NE 6.0 mph9.7 kmh 29.77 in1008.1 mb 0.00 in0.0 mm 0.00 in0.0 mm 0.04 in1.0 mm
02:45 PM 52.3°F11.3°C 48.2°F9.0°C 83% 2.9 mph NE4.7 kmh NE 6.0 mph9.7 kmh 29.77 in1008.1 mb 0.00 in0.0 mm 0.00 in0.0 mm 0.04 in1.0 mm
02:50 PM 52.3°F11.3°C 48.2°F9.0°C 83% 2.5 mph NE4.0 kmh NE 5.4 mph8.7 kmh 29.77 in1008.1 mb 0.00 in0.0 mm 0.00 in0.0 mm 0.04 in1.0 mm
02:55 PM 52.3°F11.3°C 48.2°F9.0°C 83% 2.9 mph NE4.7 kmh NE 5.8 mph9.3 kmh 29.77 in1008.1 mb 0.00 in0.0 mm 0.00 in0.0 mm 0.04 in1.0 mm
03:00 PM 52.2°F11.2°C 48.2°F9.0°C 83% 2.9 mph NE4.7 kmh NE 5.8 mph9.3 kmh 29.77 in1008.1 mb 0.00 in0.0 mm 0.00 in0.0 mm 0.04 in1.0 mm
03:05 PM 52.2°F11.2°C 48.2°F9.0°C 83% 2.8 mph ENE4.5 kmh ENE 4.7 mph7.6 kmh 29.77 in1008.1 mb 0.00 in0.0 mm 0.00 in0.0 mm 0.04 in1.0 mm
03:10 PM 52.0°F11.1°C 46.4°F8.0°C 83% 3.6 mph ENE5.8 kmh ENE 5.8 mph9.3 kmh 29.77 in1008.1 mb 0.00 in0.0 mm 0.00 in0.0 mm 0.04 in1.0 mm
03:15 PM 52.0°F11.1°C 46.4°F8.0°C 83% 4.3 mph NE6.9 kmh NE 5.8 mph9.3 kmh 29.77 in1008.1 mb 0.00 in0.0 mm 0.00 in0.0 mm 0.04 in1.0 mm
03:20 PM 52.2°F11.2°C 48.2°F9.0°C 83% 3.8 mph ENE6.1 kmh ENE 6.0 mph9.7 kmh 29.77 in1008.1 mb 0.00 in0.0 mm 0.00 in0.0 mm 0.04 in1.0 mm
03:25 PM 51.8°F11.0°C 46.4°F8.0°C 83% 4.1 mph ENE6.6 kmh ENE 6.0 mph9.7 kmh 29.77 in1008.1 mb 0.00 in0.0 mm 0.00 in0.0 mm 0.04 in1.0 mm
03:30 PM 51.8°F11.0°C 46.4°F8.0°C 83% 4.7 mph NE7.6 kmh NE 6.0 mph9.7 kmh 29.77 in1008.1 mb 0.00 in0.0 mm 0.00 in0.0 mm 0.04 in1.0 mm
03:35 PM 51.6°F10.9°C 46.4°F8.0°C 83% 3.8 mph ENE6.1 kmh ENE 6.0 mph9.7 kmh 29.77 in1008.1 mb 0.00 in0.0 mm 0.00 in0.0 mm 0.04 in1.0 mm
03:40 PM 51.8°F11.0°C 46.4°F8.0°C 83% 3.4 mph NE5.5 kmh NE 5.8 mph9.3 kmh 29.77 in1008.1 mb 0.00 in0.0 mm 0.00 in0.0 mm 0.04 in1.0 mm
03:45 PM 51.8°F11.0°C 46.4°F8.0°C 83% 3.5 mph NE5.6 kmh NE 5.8 mph9.3 kmh 29.77 in1008.1 mb 0.00 in0.0 mm 0.00 in0.0 mm 0.04 in1.0 mm
03:50 PM 51.8°F11.0°C 46.4°F8.0°C 83% 3.3 mph NE5.3 kmh NE 5.8 mph9.3 kmh 29.77 in1008.1 mb 0.00 in0.0 mm 0.00 in0.0 mm 0.04 in1.0 mm
03:55 PM 51.6°F10.9°C 46.4°F8.0°C 83% 2.7 mph NE4.3 kmh NE 5.8 mph9.3 kmh 29.77 in1008.1 mb 0.00 in0.0 mm 0.00 in0.0 mm 0.04 in1.0 mm
04:00 PM 51.4°F10.8°C 46.4°F8.0°C 83% 2.5 mph ENE4.0 kmh ENE 4.3 mph6.9 kmh 29.77 in1008.1 mb 0.00 in0.0 mm 0.00 in0.0 mm 0.04 in1.0 mm
04:05 PM 51.4°F10.8°C 46.4°F8.0°C 83% 3.1 mph ENE5.0 kmh ENE 4.3 mph6.9 kmh 29.77 in1008.1 mb 0.00 in0.0 mm 0.00 in0.0 mm 0.04 in1.0 mm
04:10 PM 51.4°F10.8°C 46.4°F8.0°C 83% 3.3 mph NE5.3 kmh NE 6.0 mph9.7 kmh 29.77 in1008.1 mb 0.00 in0.0 mm 0.00 in0.0 mm 0.04 in1.0 mm
04:15 PM 51.3°F10.7°C 46.4°F8.0°C 83% 3.7 mph NE6.0 kmh NE 6.0 mph9.7 kmh 29.77 in1008.1 mb 0.00 in0.0 mm 0.00 in0.0 mm 0.04 in1.0 mm
04:20 PM 51.1°F10.6°C 46.4°F8.0°C 83% 4.3 mph NE6.9 kmh NE 6.5 mph10.5 kmh 29.77 in1008.1 mb 0.00 in0.0 mm 0.00 in0.0 mm 0.04 in1.0 mm
04:25 PM 51.1°F10.6°C 46.4°F8.0°C 83% 3.9 mph NE6.3 kmh NE 6.5 mph10.5 kmh 29.77 in1008.1 mb 0.00 in0.0 mm 0.00 in0.0 mm 0.04 in1.0 mm
04:30 PM 50.7°F10.4°C 46.4°F8.0°C 83% 3.5 mph NE5.6 kmh NE 6.0 mph9.7 kmh 29.77 in1008.1 mb 0.00 in0.0 mm 0.00 in0.0 mm 0.04 in1.0 mm
04:35 PM 50.7°F10.4°C 46.4°F8.0°C 83% 4.0 mph NE6.4 kmh NE 6.0 mph9.7 kmh 29.77 in1008.1 mb 0.00 in0.0 mm 0.00 in0.0 mm 0.04 in1.0 mm
04:40 PM 50.7°F10.4°C 46.4°F8.0°C 83% 2.6 mph NE4.2 kmh NE 4.7 mph7.6 kmh 29.77 in1008.1 mb 0.00 in0.0 mm 0.00 in0.0 mm 0.04 in1.0 mm
04:45 PM 50.7°F10.4°C 46.4°F8.0°C 83% 2.0 mph NE3.2 kmh NE 4.3 mph6.9 kmh 29.77 in1008.1 mb 0.00 in0.0 mm 0.00 in0.0 mm 0.04 in1.0 mm
04:50 PM 50.7°F10.4°C 46.4°F8.0°C 83% 1.8 mph NE2.9 kmh NE 4.3 mph6.9 kmh 29.77 in1008.1 mb 0.00 in0.0 mm 0.00 in0.0 mm 0.04 in1.0 mm
04:55 PM 50.5°F10.3°C 46.4°F8.0°C 83% 1.7 mph NE2.7 kmh NE 3.8 mph6.1 kmh 29.77 in1008.1 mb 0.00 in0.0 mm 0.00 in0.0 mm 0.04 in1.0 mm
05:00 PM 50.7°F10.4°C 46.4°F8.0°C 83% 2.0 mph NE3.2 kmh NE 3.8 mph6.1 kmh 29.77 in1008.1 mb 0.00 in0.0 mm 0.00 in0.0 mm 0.04 in1.0 mm
05:05 PM 50.5°F10.3°C 46.4°F8.0°C 83% 1.9 mph NNE3.1 kmh NNE 2.7 mph4.3 kmh 29.77 in1008.1 mb 0.00 in0.0 mm 0.00 in0.0 mm 0.04 in1.0 mm
05:10 PM 50.5°F10.3°C 46.4°F8.0°C 83% 2.4 mph NE3.9 kmh NE 4.3 mph6.9 kmh 29.77 in1008.1 mb 0.00 in0.0 mm 0.00 in0.0 mm 0.04 in1.0 mm
05:15 PM 50.4°F10.2°C 46.4°F8.0°C 83% 2.8 mph NE4.5 kmh NE 4.3 mph6.9 kmh 29.77 in1008.1 mb 0.00 in0.0 mm 0.00 in0.0 mm 0.04 in1.0 mm
05:20 PM 50.4°F10.2°C 46.4°F8.0°C 83% 3.2 mph ENE5.1 kmh ENE 4.3 mph6.9 kmh 29.77 in1008.1 mb 0.00 in0.0 mm 0.00 in0.0 mm 0.04 in1.0 mm
05:25 PM 50.4°F10.2°C 46.4°F8.0°C 83% 3.5 mph ENE5.6 kmh ENE 4.3 mph6.9 kmh 29.77 in1008.1 mb 0.00 in0.0 mm 0.00 in0.0 mm 0.04 in1.0 mm
05:30 PM 50.2°F10.1°C 46.4°F8.0°C 84% 3.1 mph NE5.0 kmh NE 4.7 mph7.6 kmh 29.77 in1008.1 mb 0.00 in0.0 mm 0.00 in0.0 mm 0.04 in1.0 mm
05:35 PM 50.0°F10.0°C 46.4°F8.0°C 84% 2.8 mph NE4.5 kmh NE 4.7 mph7.6 kmh 29.77 in1008.1 mb 0.00 in0.0 mm 0.00 in0.0 mm 0.04 in1.0 mm
05:40 PM 50.0°F10.0°C 46.4°F8.0°C 84% 3.2 mph NE5.1 kmh NE 4.9 mph7.9 kmh 29.77 in1008.1 mb 0.00 in0.0 mm 0.00 in0.0 mm 0.04 in1.0 mm
05:45 PM 50.0°F10.0°C 46.4°F8.0°C 84% 3.3 mph NE5.3 kmh NE 4.9 mph7.9 kmh 29.77 in1008.1 mb 0.00 in0.0 mm 0.00 in0.0 mm 0.04 in1.0 mm
05:50 PM 50.0°F10.0°C 46.4°F8.0°C 84% 3.1 mph NE5.0 kmh NE 4.3 mph6.9 kmh 29.77 in1008.1 mb 0.00 in0.0 mm 0.00 in0.0 mm 0.04 in1.0 mm
05:55 PM 50.0°F10.0°C 46.4°F8.0°C 84% 2.6 mph NE4.2 kmh NE 4.0 mph6.4 kmh 29.77 in1008.1 mb 0.00 in0.0 mm 0.00 in0.0 mm 0.04 in1.0 mm
06:00 PM 49.8°F9.9°C 46.4°F8.0°C 84% 2.2 mph NE3.5 kmh NE 3.6 mph5.8 kmh 29.77 in1008.1 mb 0.00 in0.0 mm 0.00 in0.0 mm 0.04 in1.0 mm
06:05 PM 49.8°F9.9°C 46.4°F8.0°C 84% 1.9 mph NE3.1 kmh NE 3.6 mph5.8 kmh 29.80 in1009.1 mb 0.00 in0.0 mm 0.00 in0.0 mm 0.04 in1.0 mm
06:10 PM 49.8°F9.9°C 46.4°F8.0°C 84% 1.4 mph NE2.3 kmh NE 2.5 mph4.0 kmh 29.80 in1009.1 mb 0.00 in0.0 mm 0.00 in0.0 mm 0.04 in1.0 mm
06:15 PM 49.8°F9.9°C 46.4°F8.0°C 84% 1.0 mph NE1.6 kmh NE 2.2 mph3.5 kmh 29.80 in1009.1 mb 0.00 in0.0 mm 0.00 in0.0 mm 0.04 in1.0 mm
06:20 PM 49.8°F9.9°C 46.4°F8.0°C 84% 0.8 mph NE1.3 kmh NE 2.2 mph3.5 kmh 29.80 in1009.1 mb 0.00 in0.0 mm 0.00 in0.0 mm 0.04 in1.0 mm
06:25 PM 49.8°F9.9°C 46.4°F8.0°C 84% 1.1 mph NE1.8 kmh NE 2.9 mph4.7 kmh 29.80 in1009.1 mb 0.00 in0.0 mm 0.00 in0.0 mm 0.04 in1.0 mm
06:30 PM 49.8°F9.9°C 46.4°F8.0°C 85% 1.3 mph NE2.1 kmh NE 2.9 mph4.7 kmh 29.80 in1009.1 mb 0.00 in0.0 mm 0.00 in0.0 mm 0.04 in1.0 mm
06:35 PM 49.8°F9.9°C 46.4°F8.0°C 85% 1.6 mph NE2.6 kmh NE 3.1 mph5.0 kmh 29.80 in1009.1 mb 0.00 in0.0 mm 0.00 in0.0 mm 0.04 in1.0 mm
06:40 PM 49.6°F9.8°C 46.4°F8.0°C 85% 1.8 mph NE2.9 kmh NE 3.1 mph5.0 kmh 29.80 in1009.1 mb 0.00 in0.0 mm 0.00 in0.0 mm 0.04 in1.0 mm
06:45 PM 49.8°F9.9°C 46.4°F8.0°C 85% 1.9 mph NE3.1 kmh NE 3.4 mph5.5 kmh 29.80 in1009.1 mb 0.00 in0.0 mm 0.00 in0.0 mm 0.04 in1.0 mm
06:50 PM 49.6°F9.8°C 46.4°F8.0°C 85% 2.1 mph NE3.4 kmh NE 3.8 mph6.1 kmh 29.80 in1009.1 mb 0.00 in0.0 mm 0.00 in0.0 mm 0.04 in1.0 mm
06:55 PM 49.6°F9.8°C 46.4°F8.0°C 85% 2.5 mph NE4.0 kmh NE 4.3 mph6.9 kmh 29.80 in1009.1 mb 0.00 in0.0 mm 0.00 in0.0 mm 0.04 in1.0 mm
07:00 PM 49.6°F9.8°C 44.6°F7.0°C 84% 3.1 mph NE5.0 kmh NE 4.7 mph7.6 kmh 29.80 in1009.1 mb 0.00 in0.0 mm 0.00 in0.0 mm 0.04 in1.0 mm
07:05 PM 49.8°F9.9°C 46.4°F8.0°C 85% 3.9 mph NE6.3 kmh NE 5.8 mph9.3 kmh 29.77 in1008.1 mb 0.00 in0.0 mm 0.00 in0.0 mm 0.04 in1.0 mm
07:10 PM 49.6°F9.8°C 46.4°F8.0°C 85% 3.9 mph NE6.3 kmh NE 5.8 mph9.3 kmh 29.77 in1008.1 mb 0.00 in0.0 mm 0.00 in0.0 mm 0.04 in1.0 mm
07:15 PM 49.6°F9.8°C 46.4°F8.0°C 85% 2.8 mph NE4.5 kmh NE 3.4 mph5.5 kmh 29.77 in1008.1 mb 0.00 in0.0 mm 0.00 in0.0 mm 0.04 in1.0 mm
07:20 PM 49.6°F9.8°C 46.4°F8.0°C 85% 3.3 mph NE5.3 kmh NE 5.4 mph8.7 kmh 29.80 in1009.1 mb 0.00 in0.0 mm 0.00 in0.0 mm 0.04 in1.0 mm
07:25 PM 49.6°F9.8°C 46.4°F8.0°C 85% 3.0 mph ENE4.8 kmh ENE 5.4 mph8.7 kmh 29.80 in1009.1 mb 0.00 in0.0 mm 0.00 in0.0 mm 0.04 in1.0 mm
07:30 PM 49.6°F9.8°C 46.4°F8.0°C 85% 2.6 mph NE4.2 kmh NE 3.6 mph5.8 kmh 29.80 in1009.1 mb 0.00 in0.0 mm 0.00 in0.0 mm 0.04 in1.0 mm
07:35 PM 49.6°F9.8°C 46.4°F8.0°C 85% 2.9 mph NE4.7 kmh NE 3.6 mph5.8 kmh 29.80 in1009.1 mb 0.00 in0.0 mm 0.00 in0.0 mm 0.04 in1.0 mm
07:40 PM 49.6°F9.8°C 46.4°F8.0°C 85% 2.7 mph NE4.3 kmh NE 3.6 mph5.8 kmh 29.80 in1009.1 mb 0.00 in0.0 mm 0.00 in0.0 mm 0.04 in1.0 mm
07:45 PM 49.6°F9.8°C 46.4°F8.0°C 85% 1.6 mph NE2.6 kmh NE 3.6 mph5.8 kmh 29.80 in1009.1 mb 0.00 in0.0 mm 0.00 in0.0 mm 0.04 in1.0 mm
07:50 PM 49.6°F9.8°C 46.4°F8.0°C 85% 0.8 mph NE1.3 kmh NE 1.6 mph2.6 kmh 29.80 in1009.1 mb 0.00 in0.0 mm 0.00 in0.0 mm 0.04 in1.0 mm
07:55 PM 49.6°F9.8°C 46.4°F8.0°C 85% 0.9 mph NE1.4 kmh NE 1.6 mph2.6 kmh 29.80 in1009.1 mb 0.00 in0.0 mm 0.00 in0.0 mm 0.04 in1.0 mm
08:00 PM 49.6°F9.8°C 46.4°F8.0°C 85% 1.1 mph NE1.8 kmh NE 2.9 mph4.7 kmh 29.80 in1009.1 mb 0.00 in0.0 mm 0.00 in0.0 mm 0.04 in1.0 mm
08:05 PM 49.6°F9.8°C 46.4°F8.0°C 85% 1.1 mph NE1.8 kmh NE 2.9 mph4.7 kmh 29.80 in1009.1 mb 0.00 in0.0 mm 0.00 in0.0 mm 0.04 in1.0 mm
08:10 PM 49.6°F9.8°C 46.4°F8.0°C 85% 2.0 mph NE3.2 kmh NE 4.0 mph6.4 kmh 29.80 in1009.1 mb 0.00 in0.0 mm 0.00 in0.0 mm 0.04 in1.0 mm
08:15 PM 49.6°F9.8°C 46.4°F8.0°C 85% 2.9 mph NE4.7 kmh NE 4.0 mph6.4 kmh 29.80 in1009.1 mb 0.00 in0.0 mm 0.00 in0.0 mm 0.04 in1.0 mm
08:20 PM 49.6°F9.8°C 46.4°F8.0°C 85% 2.3 mph ENE3.7 kmh ENE 4.0 mph6.4 kmh 29.80 in1009.1 mb 0.00 in0.0 mm 0.00 in0.0 mm 0.04 in1.0 mm
08:25 PM 49.6°F9.8°C 46.4°F8.0°C 85% 2.1 mph E3.4 kmh E 3.6 mph5.8 kmh 29.80 in1009.1 mb 0.00 in0.0 mm 0.00 in0.0 mm 0.04 in1.0 mm
08:30 PM 49.6°F9.8°C 46.4°F8.0°C 85% 3.2 mph E5.1 kmh E 6.0 mph9.7 kmh 29.80 in1009.1 mb 0.00 in0.0 mm 0.00 in0.0 mm 0.04 in1.0 mm
08:35 PM 49.6°F9.8°C 46.4°F8.0°C 85% 3.1 mph E5.0 kmh E 6.0 mph9.7 kmh 29.80 in1009.1 mb 0.00 in0.0 mm 0.00 in0.0 mm 0.04 in1.0 mm
08:40 PM 49.6°F9.8°C 46.4°F8.0°C 85% 2.7 mph E4.3 kmh E 6.0 mph9.7 kmh 29.80 in1009.1 mb 0.00 in0.0 mm 0.00 in0.0 mm 0.04 in1.0 mm
08:45 PM 49.6°F9.8°C 46.4°F8.0°C 85% 2.6 mph E4.2 kmh E 3.8 mph6.1 kmh 29.80 in1009.1 mb 0.00 in0.0 mm 0.00 in0.0 mm 0.04 in1.0 mm
08:50 PM 49.6°F9.8°C 46.4°F8.0°C 85% 2.7 mph E4.3 kmh E 3.8 mph6.1 kmh 29.80 in1009.1 mb 0.00 in0.0 mm 0.00 in0.0 mm 0.04 in1.0 mm
08:55 PM 49.5°F9.7°C 46.4°F8.0°C 85% 2.1 mph E3.4 kmh E 3.8 mph6.1 kmh 29.80 in1009.1 mb 0.00 in0.0 mm 0.00 in0.0 mm 0.04 in1.0 mm
09:00 PM 49.5°F9.7°C 46.4°F8.0°C 85% 1.5 mph ENE2.4 kmh ENE 3.4 mph5.5 kmh 29.80 in1009.1 mb 0.00 in0.0 mm 0.00 in0.0 mm 0.04 in1.0 mm
09:05 PM 49.5°F9.7°C 46.4°F8.0°C 85% 1.6 mph NE2.6 kmh NE 3.4 mph5.5 kmh 29.80 in1009.1 mb 0.00 in0.0 mm 0.00 in0.0 mm 0.04 in1.0 mm
09:10 PM 49.5°F9.7°C 46.4°F8.0°C 86% 1.5 mph NE2.4 kmh NE 3.4 mph5.5 kmh 29.80 in1009.1 mb 0.00 in0.0 mm 0.00 in0.0 mm 0.04 in1.0 mm
09:15 PM 49.5°F9.7°C 46.4°F8.0°C 86% 0.8 mph NE1.3 kmh NE 3.1 mph5.0 kmh 29.80 in1009.1 mb 0.00 in0.0 mm 0.00 in0.0 mm 0.04 in1.0 mm
09:20 PM 49.5°F9.7°C 46.4°F8.0°C 86% 0.3 mph NE0.5 kmh NE 1.6 mph2.6 kmh 29.80 in1009.1 mb 0.00 in0.0 mm 0.00 in0.0 mm 0.04 in1.0 mm
09:25 PM 49.5°F9.7°C 46.4°F8.0°C 86% Calm Calm -- 29.80 in1009.1 mb 0.00 in0.0 mm 0.00 in0.0 mm 0.04 in1.0 mm
09:30 PM 49.5°F9.7°C 46.4°F8.0°C 86% 0.1 mph NE0.2 kmh NE 0.9 mph1.4 kmh 29.80 in1009.1 mb 0.00 in0.0 mm 0.00 in0.0 mm 0.04 in1.0 mm
09:35 PM 49.5°F9.7°C 46.4°F8.0°C 86% 0.3 mph NE0.5 kmh NE 1.1 mph1.8 kmh 29.80 in1009.1 mb 0.00 in0.0 mm 0.00 in0.0 mm 0.04 in1.0 mm
09:40 PM 49.5°F9.7°C 46.4°F8.0°C 86% 0.3 mph NNE0.5 kmh NNE 1.1 mph1.8 kmh 29.80 in1009.1 mb 0.00 in0.0 mm 0.00 in0.0 mm 0.04 in1.0 mm
09:45 PM 49.5°F9.7°C 46.4°F8.0°C 86% 0.5 mph NNE0.8 kmh NNE 2.0 mph3.2 kmh 29.80 in1009.1 mb 0.00 in0.0 mm 0.00 in0.0 mm 0.04 in1.0 mm
09:50 PM 49.5°F9.7°C 46.4°F8.0°C 86% 1.1 mph NNE1.8 kmh NNE 2.0 mph3.2 kmh 29.80 in1009.1 mb 0.00 in0.0 mm 0.00 in0.0 mm 0.04 in1.0 mm
09:55 PM 49.6°F9.8°C 46.4°F8.0°C 86% 1.6 mph N2.6 kmh N 2.7 mph4.3 kmh 29.80 in1009.1 mb 0.00 in0.0 mm 0.00 in0.0 mm 0.04 in1.0 mm
10:00 PM 49.6°F9.8°C 46.4°F8.0°C 86% 1.5 mph NNE2.4 kmh NNE 2.7 mph4.3 kmh 29.80 in1009.1 mb 0.00 in0.0 mm 0.00 in0.0 mm 0.04 in1.0 mm
10:05 PM 49.6°F9.8°C 46.4°F8.0°C 86% 1.7 mph NE2.7 kmh NE 3.8 mph6.1 kmh 29.80 in1009.1 mb 0.00 in0.0 mm 0.00 in0.0 mm 0.04 in1.0 mm
10:10 PM 49.6°F9.8°C 46.4°F8.0°C 86% 2.1 mph NE3.4 kmh NE 3.8 mph6.1 kmh 29.80 in1009.1 mb 0.00 in0.0 mm 0.00 in0.0 mm 0.04 in1.0 mm
10:15 PM 49.6°F9.8°C 46.4°F8.0°C 86% 1.8 mph NE2.9 kmh NE 2.9 mph4.7 kmh 29.80 in1009.1 mb 0.00 in0.0 mm 0.00 in0.0 mm 0.04 in1.0 mm
10:20 PM 49.6°F9.8°C 46.4°F8.0°C 86% 1.9 mph NE3.1 kmh NE 2.9 mph4.7 kmh 29.77 in1008.1 mb 0.00 in0.0 mm 0.00 in0.0 mm 0.04 in1.0 mm
10:25 PM 49.6°F9.8°C 46.4°F8.0°C 86% 2.2 mph NE3.5 kmh NE 3.4 mph5.5 kmh 29.77 in1008.1 mb 0.00 in0.0 mm 0.00 in0.0 mm 0.04 in1.0 mm
10:30 PM 49.6°F9.8°C 46.4°F8.0°C 86% 2.2 mph NE3.5 kmh NE 3.4 mph5.5 kmh 29.77 in1008.1 mb 0.00 in0.0 mm 0.00 in0.0 mm 0.04 in1.0 mm
10:35 PM 49.6°F9.8°C 46.4°F8.0°C 86% 1.6 mph NE2.6 kmh NE 2.9 mph4.7 kmh 29.77 in1008.1 mb 0.00 in0.0 mm 0.00 in0.0 mm 0.04 in1.0 mm
10:40 PM 49.6°F9.8°C 46.4°F8.0°C 86% 1.7 mph NE2.7 kmh NE 2.9 mph4.7 kmh 29.77 in1008.1 mb 0.00 in0.0 mm 0.00 in0.0 mm 0.04 in1.0 mm
10:45 PM 49.6°F9.8°C 46.4°F8.0°C 86% 1.7 mph NE2.7 kmh NE 2.9 mph4.7 kmh 29.77 in1008.1 mb 0.00 in0.0 mm 0.00 in0.0 mm 0.04 in1.0 mm
10:50 PM 49.6°F9.8°C 46.4°F8.0°C 86% 0.9 mph NE1.4 kmh NE 2.5 mph4.0 kmh 29.77 in1008.1 mb 0.00 in0.0 mm 0.00 in0.0 mm 0.04 in1.0 mm
10:55 PM 49.6°F9.8°C 46.4°F8.0°C 87% 0.8 mph NE1.3 kmh NE 2.5 mph4.0 kmh 29.77 in1008.1 mb 0.00 in0.0 mm 0.00 in0.0 mm 0.04 in1.0 mm
11:00 PM 49.6°F9.8°C 46.4°F8.0°C 87% 1.2 mph NE1.9 kmh NE 2.5 mph4.0 kmh 29.77 in1008.1 mb 0.00 in0.0 mm 0.00 in0.0 mm 0.04 in1.0 mm
11:05 PM 49.6°F9.8°C 46.4°F8.0°C 87% 1.8 mph ENE2.9 kmh ENE 2.9 mph4.7 kmh 29.77 in1008.1 mb 0.00 in0.0 mm 0.00 in0.0 mm 0.04 in1.0 mm
11:10 PM 49.8°F9.9°C 46.4°F8.0°C 86% 1.6 mph E2.6 kmh E 2.9 mph4.7 kmh 29.77 in1008.1 mb 0.00 in0.0 mm 0.00 in0.0 mm 0.04 in1.0 mm
11:15 PM 49.8°F9.9°C 46.4°F8.0°C 86% 1.2 mph E1.9 kmh E 2.5 mph4.0 kmh 29.77 in1008.1 mb 0.00 in0.0 mm 0.00 in0.0 mm 0.04 in1.0 mm
11:20 PM 49.8°F9.9°C 46.4°F8.0°C 86% 1.7 mph NE2.7 kmh NE 2.7 mph4.3 kmh 29.77 in1008.1 mb 0.00 in0.0 mm 0.00 in0.0 mm 0.04 in1.0 mm
11:25 PM 49.8°F9.9°C 46.4°F8.0°C 86% 1.2 mph NE1.9 kmh NE 2.7 mph4.3 kmh 29.77 in1008.1 mb 0.00 in0.0 mm 0.00 in0.0 mm 0.04 in1.0 mm
11:30 PM 49.8°F9.9°C 46.4°F8.0°C 86% 0.8 mph E1.3 kmh E 1.3 mph2.1 kmh 29.77 in1008.1 mb 0.00 in0.0 mm 0.00 in0.0 mm 0.04 in1.0 mm
11:35 PM 49.6°F9.8°C 46.4°F8.0°C 86% 1.3 mph ENE2.1 kmh ENE 2.5 mph4.0 kmh 29.77 in1008.1 mb 0.00 in0.0 mm 0.00 in0.0 mm 0.04 in1.0 mm
11:40 PM 49.8°F9.9°C 46.4°F8.0°C 87% 1.2 mph NE1.9 kmh NE 2.5 mph4.0 kmh 29.77 in1008.1 mb 0.00 in0.0 mm 0.00 in0.0 mm 0.04 in1.0 mm
11:45 PM 49.8°F9.9°C 46.4°F8.0°C 87% 1.4 mph NE2.3 kmh NE 2.2 mph3.5 kmh 29.77 in1008.1 mb 0.00 in0.0 mm 0.00 in0.0 mm 0.04 in1.0 mm
11:50 PM 49.8°F9.9°C 46.4°F8.0°C 87% 1.3 mph NE2.1 kmh NE 2.2 mph3.5 kmh 29.77 in1008.1 mb 0.00 in0.0 mm 0.00 in0.0 mm 0.04 in1.0 mm
11:55 PM 49.8°F9.9°C 46.4°F8.0°C 87% 1.2 mph NE1.9 kmh NE 2.2 mph3.5 kmh 29.77 in1008.1 mb 0.00 in0.0 mm 0.00 in0.0 mm 0.04 in1.0 mm